Boise, ID (83706)

2:13 AM MDT on September 16, 2014 (GMT -0600)
RAWS RAWS TRAINING FTS 403 ID US | Change Station
CLOSE
Current Station
Personal Weather Station
Location: Boise, ID
Elevation: 2859 ft
Nearby Weather Stations

Elev 2859 ft 43.60 °N, 116.21 °W | Updated 32 minutes ago

Clear
Clear
76 °F
Feels Like 77 °F
N
2
Wind Variable Wind from South
Gusts 18.0 mph

Today
High -- | Low -- °F
--% Chance of Precip.
Yesterday
High -- | Low -- °F
Precip. -- in
7:25 AM 7:52 PM
Waning Gibbous, 47% visible
Pressure 29.84 in
Visibility 10.0 miles
Clouds Clear
Heat Index 77 °F
Dew Point 41 °F
Humidity 28%
Rainfall 0.00 in
Snow Depth Not available.
UV 0 out of 12
Pollen 7.00 out of 12
Ozone Good
PM2.5 Good
Flu Activity Not available.
METAR KBOI 160753Z 14007KT 10SM CLR 24/04 A2994 RMK AO2 SLP104 T02390044

More Conditions Fewer Conditions

Pressure 29.84 in
Visibility 10.0 miles
Clouds Clear
Heat Index 77 °F
Dew Point 41 °F
Humidity 28%
Rainfall 0.00 in
Snow Depth Not available.
UV 0 out of 12
Pollen 7.00 out of 12
Ozone Good
PM2.5 Good
Flu Activity Not available.
METAR KBOI 160753Z 14007KT 10SM CLR 24/04 A2994 RMK AO2 SLP104 T02390044

More Conditions Fewer Conditions

10-Day Weather Forecast

Almanac

Astronomy

Sep. 16, 2014 Rise Set
Actual Time 7:25 AM MDT 7:52 PM MDT
Civil Twilight 6:56 AM MDT 8:21 PM MDT
Nautical Twilight 6:22 AM MDT 8:55 PM MDT
Astronomical Twilight 5:47 AM MDT 9:30 PM MDT
Moon 12:30 AM MDT 3:28 PM MDT
Length of Visible Light 13h 25m
Length of Day
12h 27m
Tomorrow will be 2m 57s shorter.
Waning Gibbous, 47% of the Moon is Illuminated
Today
Waning Gibbous
Sep 24
New
Oct 1
First Quarter
Oct 8
Full
Oct 15
Last Quarter

Today's Extremes

State Highs State Lows

Community

WunderPhotos

Upload Photos

1,753,712 photos uploaded!

Nearby

Air Quality

  Air Quality AQ Index Pollutant
Yesterday Good
PM10
Yesterday Good
OZONE
Current Good
PM2.5
Current Good
OZONE
Tuesday Moderate
PM2.5
Tuesday Good
OZONE
Wednesday Moderate
PM2.5
Wednesday Good
OZONE

Snow Depth

Station Depth Elevation
Mud Flat 0 in 5730 ft
Myrtle Creek 0 in 3520 ft
Hilts Creek 0 in 8000 ft
Hyndman 0 in 7440 ft
Soldier R.S. 0 in 5740 ft

Earthquake Activity

City Distance Mag. Time & Date
Challis, Idaho 114 miles 3.0 12:58 PM MDT
2014-09-14
Minimum magnitude displayed is 2.5.

Coastal Water Temperatures

Place Temperature
No Stations Reporting

Nearby Weather Stations